createdAt,value
2022-08-20T00:00:38.010Z,85.07
2022-08-20T00:01:38.064Z,85.37
2022-08-20T00:02:38.006Z,85.97
2022-08-20T00:03:37.981Z,86.68
2022-08-20T00:04:39.697Z,87.71
2022-08-20T00:05:37.959Z,88.62
2022-08-20T00:06:37.965Z,89.26
2022-08-20T00:07:37.937Z,89.26
2022-08-20T00:08:37.937Z,89.66
2022-08-20T00:09:37.919Z,89.26
2022-08-20T00:10:37.932Z,89.16
2022-08-20T00:11:37.918Z,88.86
2022-08-20T00:12:37.881Z,89.46
2022-08-20T00:13:37.870Z,90.26
2022-08-20T00:14:37.886Z,89.76
2022-08-20T00:15:37.850Z,89.46
2022-08-20T00:16:37.866Z,89.26
2022-08-20T00:17:37.841Z,89.16
2022-08-20T00:18:37.821Z,89.56
2022-08-20T00:19:37.806Z,89.46
2022-08-20T00:20:37.798Z,89.86
2022-08-20T00:21:37.803Z,90.16
2022-08-20T00:22:37.768Z,90.46
2022-08-20T00:23:37.765Z,90.36
2022-08-20T00:24:37.752Z,91.47
2022-08-20T00:25:37.735Z,92.16
2022-08-20T00:26:37.756Z,92.51
2022-08-20T00:27:37.771Z,92.51
2022-08-20T00:28:37.716Z,92.51
2022-08-20T00:29:37.763Z,92.61
2022-08-20T00:30:37.707Z,92.81
2022-08-20T00:31:37.689Z,92.91
2022-08-20T00:32:37.682Z,92.81
2022-08-20T00:33:37.657Z,93.01
2022-08-20T00:34:37.747Z,93.01
2022-08-20T00:35:37.785Z,93.21
2022-08-20T00:36:37.695Z,93.11
2022-08-20T00:37:37.627Z,93.01
2022-08-20T00:38:37.644Z,93.41
2022-08-20T00:39:37.658Z,93.11
2022-08-20T00:40:37.598Z,93.01
2022-08-20T00:41:37.589Z,93.21
2022-08-20T00:42:37.559Z,92.61
2022-08-20T00:43:37.557Z,92.57
2022-08-20T00:44:37.555Z,92.57
2022-08-20T00:45:37.552Z,92.91
2022-08-20T00:46:37.530Z,93.31
2022-08-20T00:47:37.525Z,93.62
2022-08-20T00:48:37.483Z,93.86
2022-08-20T00:49:37.488Z,94.46
2022-08-20T00:50:37.503Z,94.86
2022-08-20T00:51:37.488Z,94.66
2022-08-20T00:52:37.468Z,94.56
2022-08-20T00:53:37.450Z,94.36
2022-08-20T00:54:37.427Z,94.16
2022-08-20T00:55:37.421Z,94.06
2022-08-20T00:56:37.417Z,93.66
2022-08-20T00:57:53.334Z,93.76
2022-08-20T00:58:37.387Z,93.62
2022-08-20T00:59:37.388Z,93.41
2022-08-20T01:00:37.384Z,93.21
2022-08-20T01:01:52.728Z,93.31
2022-08-20T01:02:37.369Z,93.01
2022-08-20T01:03:37.356Z,92.81
2022-08-20T01:04:37.314Z,92.81
2022-08-20T01:05:37.345Z,92.71
2022-08-20T01:06:37.311Z,92.61
2022-08-20T01:07:37.284Z,92.27
2022-08-20T01:08:37.268Z,91.97
2022-08-20T01:09:58.006Z,91.86
2022-08-20T01:10:37.277Z,91.66
2022-08-20T01:11:38.195Z,91.56
2022-08-20T01:12:37.248Z,91.47
2022-08-20T01:13:37.217Z,91.66
2022-08-20T01:14:37.222Z,91.36
2022-08-20T01:15:40.068Z,91.16
2022-08-20T01:16:37.204Z,91.47
2022-08-20T01:17:37.178Z,91.16
2022-08-20T01:18:37.143Z,91.47
2022-08-20T01:19:37.171Z,91.77
2022-08-20T01:20:37.147Z,91.56
2022-08-20T01:21:37.155Z,91.56
2022-08-20T01:22:37.151Z,91.36
2022-08-20T01:23:37.096Z,91.36
2022-08-20T01:24:37.092Z,91.56
2022-08-20T01:25:37.070Z,91.27
2022-08-20T01:26:37.075Z,91.27
2022-08-20T01:27:42.845Z,91.16
2022-08-20T01:28:37.042Z,91.36
2022-08-20T01:29:37.040Z,91.47
2022-08-20T01:30:37.015Z,91.27
2022-08-20T01:31:37.053Z,91.16
2022-08-20T01:32:37.005Z,90.96
2022-08-20T01:33:36.984Z,91.36
2022-08-20T01:34:36.974Z,91.47
2022-08-20T01:35:36.992Z,91.47
2022-08-20T01:36:36.973Z,91.36
2022-08-20T01:37:36.952Z,91.36
2022-08-20T01:38:36.933Z,91.27
2022-08-20T01:39:36.956Z,91.27
2022-08-20T01:40:36.921Z,91.16
2022-08-20T01:41:36.917Z,91.36
2022-08-20T01:42:36.902Z,91.86
2022-08-20T01:43:37.291Z,91.86
2022-08-20T01:44:36.885Z,92.21
2022-08-20T01:45:36.850Z,92.31
2022-08-20T01:46:36.929Z,92.31
2022-08-20T01:47:38.483Z,92.51
2022-08-20T01:48:36.819Z,92.11
2022-08-20T01:49:36.819Z,92.31
2022-08-20T01:50:36.798Z,92.31
2022-08-20T01:51:36.815Z,92.01
2022-08-20T01:52:36.773Z,92.11
2022-08-20T01:53:36.776Z,92.21
2022-08-20T01:54:36.769Z,92.51
2022-08-20T01:55:36.747Z,92.31
2022-08-20T01:56:36.740Z,92.91
2022-08-20T01:57:36.713Z,92.91
2022-08-20T01:58:36.725Z,93.01
2022-08-20T01:59:36.692Z,93.11
2022-08-20T02:00:36.686Z,93.11
2022-08-20T02:01:46.877Z,93.01
2022-08-20T02:02:36.659Z,93.01
2022-08-20T02:03:39.705Z,93.01
2022-08-20T02:04:36.632Z,92.91
2022-08-20T02:05:36.641Z,93.01
2022-08-20T02:06:36.633Z,93.26
2022-08-20T02:07:36.604Z,93.46
2022-08-20T02:08:36.584Z,93.55
2022-08-20T02:09:36.588Z,93.55
2022-08-20T02:10:36.560Z,93.46
2022-08-20T02:11:36.564Z,93.46
2022-08-20T02:12:36.551Z,93.55
2022-08-20T02:13:36.608Z,93.55
2022-08-20T02:14:36.518Z,93.55
2022-08-20T02:15:37.313Z,93.86
2022-08-20T02:16:36.510Z,93.86
2022-08-20T02:17:36.495Z,94.06
2022-08-20T02:18:36.470Z,94.16
2022-08-20T02:19:36.471Z,94.06
2022-08-20T02:20:36.472Z,94.06
2022-08-20T02:21:36.500Z,94.26
2022-08-20T02:22:36.430Z,94.36
2022-08-20T02:23:36.428Z,94.36
2022-08-20T02:24:36.426Z,94.71
2022-08-20T02:25:36.398Z,94.81
2022-08-20T02:26:36.430Z,94.90
2022-08-20T02:27:36.374Z,94.81
2022-08-20T02:28:36.359Z,95.10
2022-08-20T02:29:36.342Z,95.61
2022-08-20T02:30:36.332Z,96.01
2022-08-20T02:31:36.349Z,96.31
2022-08-20T02:32:36.323Z,96.21
2022-08-20T02:33:36.320Z,96.41
2022-08-20T02:34:36.321Z,96.21
2022-08-20T02:35:36.283Z,96.31
2022-08-20T02:36:36.292Z,96.21
2022-08-20T02:37:36.260Z,96.31
2022-08-20T02:38:36.244Z,96.21
2022-08-20T02:39:36.288Z,96.01
2022-08-20T02:40:36.265Z,95.81
2022-08-20T02:41:36.252Z,95.61
2022-08-20T02:42:36.212Z,95.61
2022-08-20T02:43:36.216Z,95.61
2022-08-20T02:44:36.215Z,95.41
2022-08-20T02:45:36.198Z,95.21
2022-08-20T02:46:36.188Z,95.21
2022-08-20T02:47:36.175Z,95.21
2022-08-20T02:48:36.153Z,95.16
2022-08-20T02:49:36.133Z,95.06
2022-08-20T02:50:36.141Z,94.96
2022-08-20T02:51:36.124Z,94.96
2022-08-20T02:52:36.115Z,95.06
2022-08-20T02:53:36.079Z,94.86
2022-08-20T02:54:36.077Z,94.86
2022-08-20T02:55:36.075Z,94.66
2022-08-20T02:56:36.060Z,94.56
2022-08-20T02:57:36.053Z,94.46
2022-08-20T02:58:36.060Z,94.46
2022-08-20T02:59:36.017Z,94.46
2022-08-20T03:00:38.407Z,94.36
2022-08-20T03:01:36.047Z,94.26
2022-08-20T03:02:35.994Z,94.26
2022-08-20T03:03:35.998Z,94.26
2022-08-20T03:04:35.984Z,94.26
2022-08-20T03:05:35.942Z,94.26
2022-08-20T03:06:35.969Z,94.26
2022-08-20T03:07:35.938Z,94.26
2022-08-20T03:08:35.939Z,94.16
2022-08-20T03:09:35.959Z,93.96
2022-08-20T03:10:35.897Z,93.96
2022-08-20T03:11:35.929Z,93.96
2022-08-20T03:12:35.858Z,93.96
2022-08-20T03:13:35.853Z,93.96
2022-08-20T03:14:35.861Z,93.96
2022-08-20T03:15:35.837Z,94.06
2022-08-20T03:16:35.856Z,94.06
2022-08-20T03:17:35.809Z,93.86
2022-08-20T03:18:35.788Z,93.66
2022-08-20T03:19:35.800Z,93.66
2022-08-20T03:20:35.768Z,93.66
2022-08-20T03:21:35.796Z,93.76
2022-08-20T03:22:35.776Z,93.41
2022-08-20T03:23:35.752Z,93.41
2022-08-20T03:24:35.729Z,93.51
2022-08-20T03:25:35.718Z,93.51
2022-08-20T03:26:35.737Z,93.71
2022-08-20T03:27:36.201Z,93.62
2022-08-20T03:28:35.687Z,93.71
2022-08-20T03:29:35.671Z,93.62
2022-08-20T03:30:35.663Z,93.11
2022-08-20T03:31:35.663Z,92.91
2022-08-20T03:32:35.681Z,93.01
2022-08-20T03:33:35.630Z,93.11
2022-08-20T03:34:35.612Z,92.61
2022-08-20T03:35:35.629Z,92.71
2022-08-20T03:36:35.631Z,92.91
2022-08-20T03:37:35.579Z,93.01
2022-08-20T03:38:35.605Z,93.21
2022-08-20T03:39:35.605Z,93.11
2022-08-20T03:40:35.582Z,93.11
2022-08-20T03:41:35.579Z,93.01
2022-08-20T03:42:35.521Z,93.11
2022-08-20T03:43:35.536Z,93.21
2022-08-20T03:44:35.501Z,93.21
2022-08-20T03:45:35.530Z,92.91
2022-08-20T03:46:35.517Z,92.91
2022-08-20T03:47:35.479Z,92.81
2022-08-20T03:48:35.464Z,92.61
2022-08-20T03:49:35.436Z,92.81
2022-08-20T03:50:35.444Z,93.11
2022-08-20T03:51:51.499Z,93.01
2022-08-20T03:52:35.405Z,93.01
2022-08-20T03:53:35.412Z,92.81
2022-08-20T03:54:35.406Z,92.81
2022-08-20T03:55:35.440Z,92.61
2022-08-20T03:56:37.387Z,92.71
2022-08-20T03:57:35.353Z,92.71
2022-08-20T03:58:36.087Z,92.51
2022-08-20T03:59:35.328Z,92.61
2022-08-20T04:00:35.319Z,92.41
2022-08-20T04:01:45.617Z,92.71
2022-08-20T04:02:35.337Z,92.61
2022-08-20T04:03:35.279Z,92.41
2022-08-20T04:04:35.298Z,92.41
2022-08-20T04:05:35.249Z,92.41
2022-08-20T04:06:35.271Z,92.31
2022-08-20T04:07:35.236Z,92.51
2022-08-20T04:08:35.271Z,92.61
2022-08-20T04:09:35.223Z,92.51
2022-08-20T04:10:35.221Z,92.71
2022-08-20T04:11:35.234Z,92.91
2022-08-20T04:12:35.205Z,93.01
2022-08-20T04:13:37.981Z,93.01
2022-08-20T04:14:35.163Z,92.51
2022-08-20T04:15:35.155Z,92.61
2022-08-20T04:16:35.168Z,92.81
2022-08-20T04:17:35.132Z,93.11
2022-08-20T04:18:35.124Z,93.01
2022-08-20T04:19:35.091Z,92.71
2022-08-20T04:20:35.127Z,92.91
2022-08-20T04:21:35.120Z,93.01
2022-08-20T04:22:35.063Z,93.11
2022-08-20T04:23:35.123Z,93.11
2022-08-20T04:24:35.041Z,93.21
2022-08-20T04:25:35.789Z,93.21
2022-08-20T04:26:35.058Z,93.41
2022-08-20T04:27:35.033Z,93.51
2022-08-20T04:28:35.014Z,93.51
2022-08-20T04:29:35.603Z,93.51
2022-08-20T04:30:34.991Z,93.66
2022-08-20T04:31:34.982Z,93.46
2022-08-20T04:32:34.965Z,93.26
2022-08-20T04:33:35.397Z,93.36
2022-08-20T04:34:34.944Z,93.46
2022-08-20T04:35:34.917Z,93.46
2022-08-20T04:36:34.930Z,93.66
2022-08-20T04:37:34.948Z,93.66
2022-08-20T04:38:50.083Z,93.55
2022-08-20T04:39:34.973Z,93.55
2022-08-20T04:40:34.870Z,93.66
2022-08-20T04:41:34.883Z,93.76
2022-08-20T04:42:34.843Z,93.86
2022-08-20T04:43:34.859Z,93.76
2022-08-20T04:44:34.811Z,93.96
2022-08-20T04:45:34.809Z,93.96
2022-08-20T04:46:34.816Z,93.86
2022-08-20T04:47:35.054Z,93.76
2022-08-20T04:48:34.804Z,93.46
2022-08-20T04:49:34.765Z,93.46
2022-08-20T04:50:34.775Z,93.46
2022-08-20T04:51:34.766Z,93.36
2022-08-20T04:52:34.735Z,93.55
2022-08-20T04:53:34.756Z,93.86
2022-08-20T04:54:34.730Z,93.96
2022-08-20T04:55:34.701Z,93.86
2022-08-20T04:56:34.714Z,93.80
2022-08-20T04:57:34.696Z,93.90
2022-08-20T04:58:34.673Z,93.90
2022-08-20T04:59:34.651Z,93.90
2022-08-20T05:00:34.646Z,94.00
2022-08-20T05:01:34.704Z,93.96
2022-08-20T05:02:34.635Z,93.96
2022-08-20T05:03:34.620Z,93.86
2022-08-20T05:04:34.611Z,93.96
2022-08-20T05:05:34.587Z,93.96
2022-08-20T05:06:34.595Z,93.86
2022-08-20T05:07:34.567Z,93.76
2022-08-20T05:08:34.574Z,93.76
2022-08-20T05:09:43.811Z,93.55
2022-08-20T05:10:34.544Z,93.76
2022-08-20T05:11:36.960Z,93.76
2022-08-20T05:12:34.528Z,93.86
2022-08-20T05:13:34.490Z,93.76
2022-08-20T05:14:34.478Z,93.86
2022-08-20T05:15:34.512Z,93.86
2022-08-20T05:16:34.510Z,93.96
2022-08-20T05:17:34.458Z,93.96
2022-08-20T05:18:34.442Z,93.76
2022-08-20T05:19:38.384Z,93.76
2022-08-20T05:20:34.419Z,93.76
2022-08-20T05:21:34.433Z,93.76
2022-08-20T05:22:34.383Z,93.76
2022-08-20T05:23:34.391Z,93.76
2022-08-20T05:24:34.383Z,93.66
2022-08-20T05:25:34.428Z,93.55
2022-08-20T05:26:34.401Z,93.55
2022-08-20T05:27:34.367Z,93.66
2022-08-20T05:28:42.179Z,93.76
2022-08-20T05:29:34.335Z,93.76
2022-08-20T05:30:34.396Z,93.66
2022-08-20T05:31:34.326Z,93.66
2022-08-20T05:32:34.289Z,93.66
2022-08-20T05:33:34.332Z,93.76
2022-08-20T05:34:34.285Z,93.86
2022-08-20T05:35:34.272Z,93.76
2022-08-20T05:36:34.277Z,93.96
2022-08-20T05:37:34.233Z,94.06
2022-08-20T05:38:34.219Z,94.60
2022-08-20T05:39:37.382Z,94.60
2022-08-20T05:40:34.212Z,94.71
2022-08-20T05:41:34.222Z,94.81
2022-08-20T05:42:34.164Z,95.01
2022-08-20T05:43:34.161Z,95.10
2022-08-20T05:44:34.134Z,95.31
2022-08-20T05:45:34.132Z,96.26
2022-08-20T05:46:34.143Z,96.56
2022-08-20T05:47:35.413Z,96.56
2022-08-20T05:48:34.106Z,96.66
2022-08-20T05:49:34.092Z,96.51
2022-08-20T05:50:34.096Z,96.31
2022-08-20T05:51:34.088Z,96.21
2022-08-20T05:52:34.084Z,95.91
2022-08-20T05:53:34.050Z,95.71
2022-08-20T05:54:34.039Z,95.61
2022-08-20T05:55:34.020Z,95.41
2022-08-20T05:56:34.033Z,95.31
2022-08-20T05:57:34.007Z,95.51
2022-08-20T05:58:33.997Z,95.41
2022-08-20T05:59:33.979Z,95.41
2022-08-20T06:00:33.969Z,95.31
2022-08-20T06:01:34.003Z,95.31
2022-08-20T06:02:33.963Z,95.51
2022-08-20T06:03:33.927Z,95.31
2022-08-20T06:04:33.915Z,95.21
2022-08-20T06:05:33.931Z,95.41
2022-08-20T06:06:45.187Z,95.41
2022-08-20T06:07:33.898Z,95.36
2022-08-20T06:08:33.879Z,95.21
2022-08-20T06:09:33.851Z,95.31
2022-08-20T06:10:33.846Z,95.26
2022-08-20T06:11:37.011Z,95.26
2022-08-20T06:12:33.818Z,95.26
2022-08-20T06:13:33.820Z,95.16
2022-08-20T06:14:33.822Z,95.06
2022-08-20T06:15:33.800Z,94.96
2022-08-20T06:16:33.810Z,94.86
2022-08-20T06:17:39.376Z,94.71
2022-08-20T06:18:33.761Z,94.82
2022-08-20T06:19:33.778Z,94.82
2022-08-20T06:20:33.724Z,94.71
2022-08-20T06:21:33.779Z,94.62
2022-08-20T06:22:33.734Z,94.51
2022-08-20T06:23:54.313Z,94.21
2022-08-20T06:24:33.702Z,94.01
2022-08-20T06:25:37.465Z,93.87
2022-08-20T06:26:33.710Z,93.97
2022-08-20T06:27:33.656Z,93.97
2022-08-20T06:28:33.652Z,93.77
2022-08-20T06:29:33.643Z,93.37
2022-08-20T06:30:33.609Z,93.57
2022-08-20T06:31:33.641Z,93.21
2022-08-20T06:32:33.604Z,93.11
2022-08-20T06:33:33.594Z,93.27
2022-08-20T06:34:33.576Z,93.37
2022-08-20T06:35:33.557Z,93.27
2022-08-20T06:36:33.580Z,93.07
2022-08-20T06:37:33.559Z,93.07
2022-08-20T06:38:33.525Z,93.07
2022-08-20T06:39:33.570Z,93.07
2022-08-20T06:40:33.513Z,92.86
2022-08-20T06:41:36.200Z,93.17
2022-08-20T06:42:33.509Z,93.27
2022-08-20T06:43:33.460Z,93.27
2022-08-20T06:44:33.458Z,92.97
2022-08-20T06:45:33.462Z,93.02
2022-08-20T06:46:33.486Z,92.82
2022-08-20T06:47:33.453Z,92.07
2022-08-20T06:48:33.468Z,92.07
2022-08-20T06:49:34.142Z,92.22
2022-08-20T06:50:33.400Z,92.02
2022-08-20T06:51:33.398Z,92.22
2022-08-20T06:52:51.695Z,92.12
2022-08-20T06:53:33.358Z,92.02
2022-08-20T06:54:33.358Z,92.02
2022-08-20T06:55:33.341Z,92.02
2022-08-20T06:56:33.335Z,91.62
2022-08-20T06:57:33.309Z,91.36
2022-08-20T06:58:38.441Z,91.72
2022-08-20T06:59:33.302Z,92.02
2022-08-20T07:00:33.282Z,91.52
2022-08-20T07:01:33.375Z,91.12
2022-08-20T07:02:33.257Z,91.02
2022-08-20T07:03:33.256Z,91.02
2022-08-20T07:04:33.229Z,91.12
2022-08-20T07:05:33.222Z,90.72
2022-08-20T07:06:33.246Z,90.52
2022-08-20T07:07:33.198Z,90.28
2022-08-20T07:08:33.263Z,90.08
2022-08-20T07:09:33.193Z,89.98
2022-08-20T07:10:33.193Z,89.98
2022-08-20T07:11:33.175Z,89.78
2022-08-20T07:12:33.225Z,89.87
2022-08-20T07:13:33.132Z,89.58
2022-08-20T07:14:33.150Z,89.48
2022-08-20T07:15:33.133Z,89.58
2022-08-20T07:16:33.154Z,89.64
2022-08-20T07:17:33.094Z,89.64
2022-08-20T07:18:33.115Z,89.33
2022-08-20T07:19:33.063Z,89.14
2022-08-20T07:20:33.076Z,88.93
2022-08-20T07:21:33.060Z,88.73
2022-08-20T07:22:33.046Z,88.49
2022-08-20T07:23:33.025Z,88.29
2022-08-20T07:24:34.973Z,88.35
2022-08-20T07:25:33.000Z,87.45
2022-08-20T07:26:33.029Z,87.35
2022-08-20T07:27:32.967Z,87.25
2022-08-20T07:28:32.976Z,86.75
2022-08-20T07:29:32.982Z,86.95
2022-08-20T07:30:32.943Z,86.85
2022-08-20T07:31:34.820Z,86.75
2022-08-20T07:32:32.927Z,86.55
2022-08-20T07:33:32.931Z,86.19
2022-08-20T07:34:32.906Z,85.99
2022-08-20T07:35:32.914Z,86.29
2022-08-20T07:36:33.340Z,86.59
2022-08-20T07:37:32.856Z,86.59
2022-08-20T07:38:32.883Z,86.69
2022-08-20T07:39:32.894Z,86.59
2022-08-20T07:40:32.832Z,86.45
2022-08-20T07:41:32.816Z,86.25
2022-08-20T07:42:32.821Z,85.75
2022-08-20T07:43:32.803Z,85.91
2022-08-20T07:44:32.827Z,85.71
2022-08-20T07:45:32.788Z,85.57
2022-08-20T07:46:32.768Z,85.57
2022-08-20T07:47:32.812Z,85.33
2022-08-20T07:48:32.778Z,84.99
2022-08-20T07:49:32.744Z,84.79
2022-08-20T07:50:32.730Z,84.79
2022-08-20T07:51:32.737Z,84.69
2022-08-20T07:52:32.767Z,84.09
2022-08-20T07:53:35.634Z,83.39
2022-08-20T07:54:32.679Z,83.25
2022-08-20T07:55:32.674Z,82.81
2022-08-20T07:56:32.997Z,82.62
2022-08-20T07:57:32.887Z,82.71
2022-08-20T07:58:33.232Z,82.56
2022-08-20T07:59:32.684Z,80.46
2022-08-20T08:00:32.614Z,80.60
2022-08-20T08:01:32.645Z,81.60
2022-08-20T08:02:32.634Z,81.20
2022-08-20T08:03:40.558Z,80.74
2022-08-20T08:04:32.621Z,80.74
2022-08-20T08:05:32.584Z,80.94
2022-08-20T08:06:32.548Z,81.13
2022-08-20T08:07:32.589Z,80.83
2022-08-20T08:08:32.532Z,80.34
2022-08-20T08:09:32.509Z,81.04
2022-08-20T08:10:32.515Z,81.43
2022-08-20T08:11:32.495Z,81.40
2022-08-20T08:12:32.502Z,81.30
2022-08-20T08:13:32.475Z,80.26
2022-08-20T08:14:32.468Z,79.66
2022-08-20T08:15:32.464Z,78.63
2022-08-20T08:16:32.556Z,76.67
2022-08-20T08:17:32.543Z,79.06
2022-08-20T08:18:32.438Z,79.33
2022-08-20T08:19:32.465Z,78.83
2022-08-20T08:20:32.440Z,77.07
2022-08-20T08:21:32.379Z,76.57
2022-08-20T08:22:32.398Z,77.74
2022-08-20T08:23:32.420Z,78.24
2022-08-20T08:24:32.355Z,78.24
2022-08-20T08:25:32.346Z,79.00
2022-08-20T08:26:32.318Z,78.50
2022-08-20T08:27:32.332Z,78.90
2022-08-20T08:28:32.291Z,80.20
2022-08-20T08:29:32.302Z,80.30
2022-08-20T08:30:32.271Z,80.40
2022-08-20T08:31:32.281Z,80.00
2022-08-20T08:32:32.278Z,78.80
2022-08-20T08:33:32.252Z,79.80
2022-08-20T08:34:32.227Z,80.04
2022-08-20T08:35:32.220Z,80.24
2022-08-20T08:36:32.205Z,79.54
2022-08-20T08:37:32.222Z,79.97
2022-08-20T08:38:32.195Z,80.98
2022-08-20T08:39:34.625Z,81.07
2022-08-20T08:40:32.166Z,80.83
2022-08-20T08:41:32.308Z,81.34
2022-08-20T08:42:32.167Z,79.34
2022-08-20T08:43:32.138Z,80.58
2022-08-20T08:44:32.130Z,81.13
2022-08-20T08:45:32.110Z,81.49
2022-08-20T08:46:32.095Z,80.90
2022-08-20T08:47:32.103Z,80.56
2022-08-20T08:48:32.083Z,76.97
2022-08-20T08:49:33.968Z,77.97
2022-08-20T08:50:52.930Z,78.43
2022-08-20T08:51:32.059Z,78.33
2022-08-20T08:52:32.060Z,78.13
2022-08-20T08:53:32.022Z,77.89
2022-08-20T08:54:32.023Z,77.50
2022-08-20T08:55:32.009Z,76.86
2022-08-20T08:56:31.990Z,76.96
2022-08-20T08:57:31.996Z,75.46
2022-08-20T08:58:31.973Z,76.06
2022-08-20T08:59:52.269Z,74.24
2022-08-20T09:00:31.960Z,74.93
2022-08-20T09:01:54.322Z,72.31
2022-08-20T09:02:32.129Z,71.45
2022-08-20T09:03:31.930Z,73.60
2022-08-20T09:04:32.014Z,74.37
2022-08-20T09:05:31.893Z,74.66
2022-08-20T09:06:31.890Z,72.84
2022-08-20T09:07:31.897Z,72.77
2022-08-20T09:08:31.876Z,72.51
2022-08-20T09:09:31.855Z,73.30
2022-08-20T09:10:31.850Z,73.41
2022-08-20T09:11:31.834Z,72.91
2022-08-20T09:12:31.841Z,73.41
2022-08-20T09:13:31.820Z,73.30
2022-08-20T09:14:31.812Z,72.38
2022-08-20T09:15:31.788Z,72.77
2022-08-20T09:16:52.456Z,72.14
2022-08-20T09:17:31.796Z,71.94
2022-08-20T09:18:31.756Z,71.41
2022-08-20T09:19:31.747Z,71.81
2022-08-20T09:20:31.739Z,72.20
2022-08-20T09:21:31.728Z,71.67
2022-08-20T09:22:31.742Z,70.92
2022-08-20T09:23:31.728Z,70.65
2022-08-20T09:24:31.694Z,70.36
2022-08-20T09:25:31.699Z,70.65
2022-08-20T09:26:31.677Z,71.64
2022-08-20T09:27:31.684Z,70.62
2022-08-20T09:28:32.529Z,69.66
2022-08-20T09:29:31.644Z,69.66
2022-08-20T09:30:31.650Z,70.42
2022-08-20T09:31:31.625Z,69.82
2022-08-20T09:32:31.637Z,69.43
2022-08-20T09:33:31.602Z,69.32
2022-08-20T09:34:31.600Z,70.18
2022-08-20T09:35:31.582Z,68.80
2022-08-20T09:36:32.766Z,69.26
2022-08-20T09:37:36.657Z,68.17
2022-08-20T09:38:31.553Z,68.37
2022-08-20T09:39:31.541Z,67.97
2022-08-20T09:40:31.522Z,66.91
2022-08-20T09:41:33.546Z,68.90
2022-08-20T09:42:31.526Z,68.70
2022-08-20T09:43:31.519Z,67.47
2022-08-20T09:44:31.483Z,68.37
2022-08-20T09:45:31.474Z,68.07
2022-08-20T09:46:31.468Z,67.77
2022-08-20T09:47:31.482Z,66.38
2022-08-20T09:48:32.086Z,67.41
2022-08-20T09:49:31.436Z,68.46
2022-08-20T09:50:31.423Z,68.86
2022-08-20T09:51:31.410Z,68.93
2022-08-20T09:52:31.424Z,65.69
2022-08-20T09:53:31.393Z,66.81
2022-08-20T09:54:31.375Z,68.04
2022-08-20T09:55:31.369Z,69.82
2022-08-20T09:56:31.354Z,67.64
2022-08-20T09:57:31.363Z,69.03
2022-08-20T09:58:31.351Z,67.94
2022-08-20T09:59:31.324Z,67.67
2022-08-20T10:00:31.328Z,68.00
2022-08-20T10:01:31.345Z,69.79
2022-08-20T10:02:31.317Z,70.85
2022-08-20T10:03:31.302Z,67.27
2022-08-20T10:04:31.277Z,70.36
2022-08-20T10:05:31.260Z,69.20
2022-08-20T10:06:35.789Z,69.16
2022-08-20T10:07:31.262Z,67.54
2022-08-20T10:08:31.232Z,66.25
2022-08-20T10:09:31.208Z,67.31
2022-08-20T10:10:31.210Z,65.92
2022-08-20T10:11:31.193Z,66.71
2022-08-20T10:12:31.206Z,66.39
2022-08-20T10:13:31.169Z,66.78
2022-08-20T10:14:31.176Z,66.25
2022-08-20T10:15:31.147Z,64.31
2022-08-20T10:16:31.136Z,66.19
2022-08-20T10:17:31.146Z,64.60
2022-08-20T10:18:31.126Z,66.88
2022-08-20T10:19:31.105Z,65.82
2022-08-20T10:20:31.139Z,66.12
2022-08-20T10:21:33.360Z,66.32
2022-08-20T10:22:31.100Z,66.52
2022-08-20T10:23:31.062Z,65.92
2022-08-20T10:24:31.066Z,65.23
2022-08-20T10:25:31.037Z,65.62
2022-08-20T10:26:31.040Z,65.89
2022-08-20T10:27:31.037Z,65.17
2022-08-20T10:28:31.005Z,64.28
2022-08-20T10:29:30.989Z,63.09
2022-08-20T10:30:30.978Z,65.23
2022-08-20T10:31:30.984Z,66.19
2022-08-20T10:32:31.004Z,65.20
2022-08-20T10:33:30.948Z,62.50
2022-08-20T10:34:30.938Z,63.68
2022-08-20T10:35:30.935Z,63.59
2022-08-20T10:36:30.947Z,64.21
2022-08-20T10:37:30.928Z,63.62
2022-08-20T10:38:30.907Z,63.45
2022-08-20T10:39:31.640Z,63.95
2022-08-20T10:40:30.865Z,63.42
2022-08-20T10:41:30.861Z,63.48
2022-08-20T10:42:30.867Z,67.71
2022-08-20T10:43:30.848Z,66.74
2022-08-20T10:44:30.833Z,68.43
2022-08-20T10:45:30.809Z,67.54
2022-08-20T10:46:30.798Z,68.43
2022-08-20T10:47:30.811Z,66.88
2022-08-20T10:48:30.786Z,67.18
2022-08-20T10:49:30.778Z,67.37
2022-08-20T10:50:30.752Z,67.57
2022-08-20T10:51:32.325Z,68.27
2022-08-20T10:52:30.751Z,67.77
2022-08-20T10:53:30.730Z,67.94
2022-08-20T10:54:30.723Z,66.44
2022-08-20T10:55:30.702Z,67.01
2022-08-20T10:56:30.692Z,65.09
2022-08-20T10:57:30.698Z,66.78
2022-08-20T10:58:39.274Z,66.48
2022-08-20T10:59:30.675Z,66.15
2022-08-20T11:00:30.640Z,65.95
2022-08-20T11:01:36.224Z,65.29
2022-08-20T11:02:30.729Z,67.05
2022-08-20T11:03:30.615Z,65.75
2022-08-20T11:04:30.615Z,64.67
2022-08-20T11:05:30.608Z,64.47
2022-08-20T11:06:30.571Z,65.56
2022-08-20T11:07:55.610Z,66.15
2022-08-20T11:08:34.158Z,65.26
2022-08-20T11:09:30.551Z,64.67
2022-08-20T11:10:30.532Z,64.67
2022-08-20T11:11:30.529Z,64.76
2022-08-20T11:12:30.529Z,65.42
2022-08-20T11:13:30.503Z,64.93
2022-08-20T11:14:30.499Z,65.82
2022-08-20T11:15:30.502Z,65.20
2022-08-20T11:16:30.458Z,64.63
2022-08-20T11:17:30.481Z,64.93
2022-08-20T11:18:30.439Z,62.98
2022-08-20T11:19:30.439Z,65.06
2022-08-20T11:20:30.418Z,64.86
2022-08-20T11:21:30.417Z,65.06
2022-08-20T11:22:30.413Z,65.56
2022-08-20T11:23:30.548Z,63.51
2022-08-20T11:24:30.373Z,64.99
2022-08-20T11:25:30.365Z,63.90
2022-08-20T11:26:30.364Z,65.29
2022-08-20T11:27:30.383Z,64.62
2022-08-20T11:28:31.940Z,65.62
2022-08-20T11:29:33.910Z,65.52
2022-08-20T11:30:30.307Z,64.83
2022-08-20T11:31:30.304Z,65.35
2022-08-20T11:32:30.306Z,66.05
2022-08-20T11:33:30.276Z,66.25
2022-08-20T11:34:30.267Z,65.95
2022-08-20T11:35:49.560Z,65.16
2022-08-20T11:36:30.274Z,66.97
2022-08-20T11:37:30.259Z,67.27
2022-08-20T11:38:30.227Z,67.18
2022-08-20T11:39:30.208Z,66.48
2022-08-20T11:40:30.231Z,66.88
2022-08-20T11:41:30.207Z,66.31
2022-08-20T11:42:30.192Z,67.30
2022-08-20T11:43:30.167Z,67.80
2022-08-20T11:44:30.158Z,69.06
2022-08-20T11:45:30.147Z,68.27
2022-08-20T11:46:30.145Z,66.97
2022-08-20T11:47:30.159Z,67.07
2022-08-20T11:48:30.119Z,67.67
2022-08-20T11:49:30.097Z,66.88
2022-08-20T11:50:30.102Z,66.44
2022-08-20T11:51:30.075Z,66.74
2022-08-20T11:52:30.107Z,66.25
2022-08-20T11:53:30.053Z,67.34
2022-08-20T11:54:30.053Z,66.28
2022-08-20T11:55:31.228Z,66.18
2022-08-20T11:56:30.030Z,67.18
2022-08-20T11:57:30.050Z,65.68
2022-08-20T11:58:30.021Z,67.11
2022-08-20T11:59:30.017Z,68.20
2022-08-20T12:00:33.226Z,65.91
2022-08-20T12:01:29.981Z,67.60
2022-08-20T12:02:30.129Z,66.91
2022-08-20T12:03:29.957Z,66.41
2022-08-20T12:04:29.947Z,67.40
2022-08-20T12:05:30.365Z,67.60
2022-08-20T12:06:29.937Z,67.47
2022-08-20T12:07:29.930Z,66.38
2022-08-20T12:08:29.913Z,66.05
2022-08-20T12:09:29.887Z,67.44
2022-08-20T12:10:29.895Z,65.95
2022-08-20T12:11:29.868Z,66.44
2022-08-20T12:12:29.888Z,66.51
2022-08-20T12:13:30.915Z,64.92
2022-08-20T12:14:29.847Z,64.36
2022-08-20T12:15:29.835Z,64.16
2022-08-20T12:16:29.819Z,64.36
2022-08-20T12:17:29.829Z,64.26
2022-08-20T12:18:29.807Z,64.56
2022-08-20T12:19:29.795Z,63.93
2022-08-20T12:20:29.785Z,63.73
2022-08-20T12:21:32.451Z,64.23
2022-08-20T12:22:29.776Z,64.43
2022-08-20T12:23:29.744Z,64.30
2022-08-20T12:24:29.733Z,62.45
2022-08-20T12:25:29.719Z,63.73
2022-08-20T12:26:29.740Z,63.70
2022-08-20T12:27:29.736Z,63.21
2022-08-20T12:28:29.689Z,63.51
2022-08-20T12:29:29.682Z,62.81
2022-08-20T12:30:29.676Z,63.40
2022-08-20T12:31:29.673Z,62.68
2022-08-20T12:32:29.677Z,62.08
2022-08-20T12:33:29.637Z,62.45
2022-08-20T12:34:29.627Z,60.24
2022-08-20T12:35:29.614Z,60.14
2022-08-20T12:36:29.606Z,61.10
2022-08-20T12:37:29.607Z,62.19
2022-08-20T12:38:29.575Z,60.97
2022-08-20T12:39:29.574Z,59.89
2022-08-20T12:40:32.192Z,60.38
2022-08-20T12:41:29.546Z,60.48
2022-08-20T12:42:29.555Z,60.16
2022-08-20T12:43:29.529Z,59.56
2022-08-20T12:44:29.512Z,59.00
2022-08-20T12:45:29.520Z,60.19
2022-08-20T12:46:29.493Z,59.89
2022-08-20T12:47:29.506Z,58.60
2022-08-20T12:48:29.509Z,57.88
2022-08-20T12:49:29.461Z,58.57
2022-08-20T12:50:31.601Z,57.39
2022-08-20T12:51:29.568Z,57.98
2022-08-20T12:52:29.457Z,57.85